Roatan, Honduras

7:50 AM CST on February 09, 2016 (GMT -0600)
Roatan International | | Change Station
CLOSE
Current Station
Airport
Location: Roatan,
Elevation: 16 ft
Nearby Weather Stations

Elev 16 ft 16.32 °N, 86.53 °W | Updated 50 minutes ago

Overcast
Overcast
75 °F
Feels Like 75 °F
N
12
Wind Variable Wind from WNW

Today
High -- | Low -- °F
--% Chance of Precip.
Yesterday
High -- | Low -- °F
Precip. -- in
Pressure 30.18 in
Visibility 6.2 miles
Clouds Mostly Cloudy 1500 ft
Overcast 7000 ft
Dew Point 61 °F
Humidity 61%
Rainfall 0.00 in
Snow Depth Not available.
6:14 AM 5:46 PM
New Moon, 1% visible
METAR MHRO 091300Z 29010KT 9999 BKN015TCU OVC070 24/16 Q1022 A3018 BECMG 7000 VCSH
Pressure 30.18 in
Visibility 6.2 miles
Clouds Mostly Cloudy 1500 ft
Overcast 7000 ft
Dew Point 61 °F
Humidity 61%
Rainfall 0.00 in
Snow Depth Not available.
6:14 AM 5:46 PM
New Moon, 1% visible
METAR MHRO 091300Z 29010KT 9999 BKN015TCU OVC070 24/16 Q1022 A3018 BECMG 7000 VCSH

10-Day Weather Forecast

No radar image for this location.
×

Almanac

Astronomy

Feb. 09, 2016 Rise Set
Actual Time
Civil Twilight
Nautical Twilight
Astronomical Twilight
Moon
Length of Visible Light
Length of Day
Tomorrow will be .
, % of the Moon is Illuminated

Today's Extremes

Country Highs Country Lows

Community

WunderPhotos

Upload Photos

1,891,591 photos uploaded!

WunderBlog® & News

Nearby

Air Quality

  Air Quality AQ Index Pollutant
Not available.

Snow Depth

Station Depth Elevation

Earthquake Activity

City Distance Mag. Time & Date
Minimum magnitude displayed is 2.5.

Coastal Water Temperatures

Place Temperature

Stations

Nearby Weather Stations

Station Location Temp. Windchill Dew Point Humidity Wind Precip. Elev Updated Type